createdAt,value
2023-03-25T00:00:15.697Z,73.15
2023-03-25T00:02:48.524Z,73.65
2023-03-25T00:05:17.078Z,73.14
2023-03-25T00:07:45.019Z,72.39
2023-03-25T00:10:13.792Z,72.98
2023-03-25T00:12:41.358Z,73.19
2023-03-25T00:15:09.540Z,73.01
2023-03-25T00:17:37.077Z,72.78
2023-03-25T00:20:11.334Z,72.39
2023-03-25T00:22:41.765Z,72.85
2023-03-25T00:25:17.992Z,72.71
2023-03-25T00:27:46.870Z,73.51
2023-03-25T00:30:18.673Z,73.91
2023-03-25T00:32:53.231Z,72.88
2023-03-25T00:35:20.507Z,73.19
2023-03-25T00:38:00.331Z,73.66
2023-03-25T00:40:28.631Z,73.63
2023-03-25T00:42:55.787Z,73.01
2023-03-25T00:45:22.978Z,72.92
2023-03-25T00:47:51.210Z,73.10
2023-03-25T00:50:18.072Z,73.29
2023-03-25T00:52:45.367Z,73.96
2023-03-25T00:55:12.442Z,73.61
2023-03-25T00:57:39.325Z,74.12
2023-03-25T01:00:09.737Z,74.20
2023-03-25T01:02:36.639Z,74.21
2023-03-25T01:05:04.586Z,73.78
2023-03-25T01:07:32.338Z,73.36
2023-03-25T01:09:59.999Z,73.92
2023-03-25T01:12:27.465Z,74.19
2023-03-25T01:14:54.619Z,73.72
2023-03-25T01:17:21.430Z,73.86
2023-03-25T01:19:48.217Z,74.00
2023-03-25T01:22:15.103Z,74.52
2023-03-25T01:24:42.443Z,74.73
2023-03-25T01:27:09.246Z,74.53
2023-03-25T01:29:36.210Z,74.63
2023-03-25T01:32:03.125Z,74.02
2023-03-25T01:34:32.748Z,74.31
2023-03-25T01:37:00.162Z,73.93
2023-03-25T01:39:26.973Z,74.03
2023-03-25T01:41:55.457Z,74.66
2023-03-25T01:44:22.655Z,74.32
2023-03-25T01:46:53.934Z,74.61
2023-03-25T01:49:24.848Z,74.57
2023-03-25T01:51:55.409Z,74.90
2023-03-25T01:54:22.462Z,74.44
2023-03-25T01:56:50.163Z,73.78
2023-03-25T01:59:19.424Z,74.24
2023-03-25T02:01:49.369Z,73.89
2023-03-25T02:04:35.082Z,75.60
2023-03-25T02:07:02.320Z,75.42
2023-03-25T02:09:29.228Z,74.60
2023-03-25T02:11:56.088Z,75.17
2023-03-25T02:14:25.970Z,75.14
2023-03-25T02:17:05.494Z,74.77
2023-03-25T02:19:38.360Z,75.17
2023-03-25T02:22:38.102Z,75.01
2023-03-25T02:25:35.657Z,74.63
2023-03-25T02:28:26.160Z,75.40
2023-03-25T02:31:34.618Z,74.59
2023-03-25T02:34:11.387Z,73.86
2023-03-25T02:37:03.523Z,74.38
2023-03-25T02:39:47.440Z,74.75
2023-03-25T02:42:38.463Z,74.50
2023-03-25T02:45:09.429Z,73.70
2023-03-25T02:47:40.078Z,74.01
2023-03-25T02:50:11.145Z,74.34
2023-03-25T02:52:45.097Z,74.02
2023-03-25T02:55:15.227Z,74.15
2023-03-25T02:57:46.202Z,74.18
2023-03-25T03:00:15.967Z,73.88
2023-03-25T03:02:53.655Z,73.67
2023-03-25T03:05:30.105Z,73.38
2023-03-25T03:08:19.742Z,73.40
2023-03-25T03:11:05.414Z,74.42
2023-03-25T03:13:53.427Z,74.92
2023-03-25T03:16:58.684Z,75.29
2023-03-25T03:19:40.597Z,78.13
2023-03-25T03:22:35.197Z,79.38
2023-03-25T03:25:32.905Z,80.27
2023-03-25T03:28:07.172Z,81.12
2023-03-25T03:30:50.160Z,80.10
2023-03-25T03:33:22.012Z,80.81
2023-03-25T03:35:57.571Z,81.29
2023-03-25T03:38:32.933Z,81.96
2023-03-25T03:41:10.240Z,82.50
2023-03-25T03:43:51.425Z,83.34
2023-03-25T03:46:34.850Z,82.89
2023-03-25T03:49:06.087Z,83.49
2023-03-25T03:51:39.049Z,83.68
2023-03-25T03:54:06.757Z,83.71
2023-03-25T03:56:46.736Z,83.77
2023-03-25T03:59:21.277Z,84.19
2023-03-25T04:01:54.364Z,83.43
2023-03-25T04:04:24.026Z,83.20
2023-03-25T04:07:14.880Z,83.73
2023-03-25T04:09:55.267Z,83.26
2023-03-25T04:12:27.527Z,82.81
2023-03-25T04:15:01.079Z,83.14
2023-03-25T04:17:30.373Z,81.94
2023-03-25T04:19:57.395Z,81.66
2023-03-25T04:22:24.884Z,81.29
2023-03-25T04:24:52.206Z,81.18
2023-03-25T04:27:20.122Z,80.82
2023-03-25T04:29:47.975Z,81.52
2023-03-25T04:32:14.975Z,80.83
2023-03-25T04:34:41.984Z,80.79
2023-03-25T04:37:08.826Z,80.52
2023-03-25T04:39:35.642Z,80.59
2023-03-25T04:42:03.784Z,80.01
2023-03-25T04:44:33.947Z,80.97
2023-03-25T04:47:02.472Z,80.44
2023-03-25T04:49:29.298Z,79.48
2023-03-25T04:51:57.223Z,80.08
2023-03-25T04:54:24.120Z,79.88
2023-03-25T04:56:52.096Z,79.88
2023-03-25T04:59:20.317Z,80.07
2023-03-25T05:01:47.796Z,79.30
2023-03-25T05:04:17.844Z,79.62
2023-03-25T05:06:50.723Z,79.54
2023-03-25T05:09:22.336Z,79.26
2023-03-25T05:11:50.401Z,79.51
2023-03-25T05:14:19.022Z,79.38
2023-03-25T05:16:46.730Z,78.55
2023-03-25T05:19:14.960Z,79.64
2023-03-25T05:21:42.524Z,79.29
2023-03-25T05:24:10.917Z,79.20
2023-03-25T05:26:39.944Z,78.19
2023-03-25T05:29:09.411Z,78.73
2023-03-25T05:31:36.554Z,78.44
2023-03-25T05:34:06.894Z,78.32
2023-03-25T05:36:33.796Z,77.85
2023-03-25T05:39:00.867Z,76.52
2023-03-25T05:41:33.075Z,76.24
2023-03-25T05:44:01.033Z,76.53
2023-03-25T05:46:31.110Z,75.70
2023-03-25T05:48:58.201Z,76.69
2023-03-25T05:51:26.120Z,76.27
2023-03-25T05:53:53.467Z,74.66
2023-03-25T05:56:21.807Z,74.10
2023-03-25T05:58:51.342Z,76.35
2023-03-25T06:01:31.986Z,76.87
2023-03-25T06:04:02.097Z,75.25
2023-03-25T06:06:29.604Z,75.44
2023-03-25T06:08:56.472Z,75.44
2023-03-25T06:11:23.244Z,75.75
2023-03-25T06:13:50.222Z,74.66
2023-03-25T06:16:19.858Z,74.93
2023-03-25T06:18:50.972Z,75.12
2023-03-25T06:21:19.178Z,74.80
2023-03-25T06:23:48.353Z,74.17
2023-03-25T06:26:18.609Z,73.57
2023-03-25T06:28:46.317Z,73.02
2023-03-25T06:31:18.799Z,73.20
2023-03-25T06:33:46.021Z,73.47
2023-03-25T06:36:15.658Z,73.35
2023-03-25T06:38:42.542Z,73.98
2023-03-25T06:41:14.091Z,73.57
2023-03-25T06:43:43.266Z,73.12
2023-03-25T06:46:28.798Z,72.52
2023-03-25T06:49:10.191Z,72.29
2023-03-25T06:51:36.944Z,72.75
2023-03-25T06:54:03.736Z,72.00
2023-03-25T06:56:30.627Z,72.44
2023-03-25T06:58:57.460Z,73.16
2023-03-25T07:01:24.374Z,72.48
2023-03-25T07:03:51.194Z,73.24
2023-03-25T07:06:20.681Z,72.54
2023-03-25T07:08:48.038Z,71.52
2023-03-25T07:11:15.906Z,71.23
2023-03-25T07:13:42.678Z,70.33
2023-03-25T07:16:10.160Z,70.60
2023-03-25T07:18:41.441Z,69.11
2023-03-25T07:21:08.376Z,69.36
2023-03-25T07:23:35.150Z,69.17
2023-03-25T07:26:02.006Z,67.81
2023-03-25T07:28:28.833Z,66.69
2023-03-25T07:30:55.637Z,66.34
2023-03-25T07:33:22.427Z,66.07
2023-03-25T07:35:49.405Z,64.79
2023-03-25T07:38:16.362Z,64.98
2023-03-25T07:40:43.194Z,62.45
2023-03-25T07:43:16.933Z,62.36
2023-03-25T07:45:54.213Z,63.36
2023-03-25T07:48:22.978Z,63.13
2023-03-25T07:50:51.753Z,60.74
2023-03-25T07:53:18.575Z,60.92
2023-03-25T07:55:51.332Z,62.26
2023-03-25T07:58:19.441Z,60.03
2023-03-25T08:00:46.562Z,59.23
2023-03-25T08:03:14.363Z,59.36
2023-03-25T08:05:47.267Z,61.83
2023-03-25T08:08:14.669Z,58.81
2023-03-25T08:10:43.786Z,58.49
2023-03-25T08:13:11.086Z,57.58
2023-03-25T08:15:38.295Z,55.67
2023-03-25T08:18:06.737Z,57.23
2023-03-25T08:20:34.729Z,54.54
2023-03-25T08:23:03.124Z,55.68
2023-03-25T08:25:32.881Z,56.69
2023-03-25T08:27:59.640Z,55.84
2023-03-25T08:30:26.497Z,53.58
2023-03-25T08:32:56.196Z,54.70
2023-03-25T08:35:24.303Z,54.52
2023-03-25T08:37:51.713Z,55.07
2023-03-25T08:40:18.850Z,53.06
2023-03-25T08:42:46.570Z,53.62
2023-03-25T08:45:15.523Z,53.34
2023-03-25T08:47:43.619Z,52.18
2023-03-25T08:50:10.839Z,54.73
2023-03-25T08:52:37.766Z,52.67
2023-03-25T08:55:09.675Z,53.50
2023-03-25T08:57:38.106Z,53.07
2023-03-25T09:00:13.252Z,53.39
2023-03-25T09:02:41.294Z,52.92
2023-03-25T09:05:09.667Z,53.67
2023-03-25T09:07:37.191Z,52.35
2023-03-25T09:10:05.162Z,52.12
2023-03-25T09:12:32.083Z,52.00
2023-03-25T09:14:58.855Z,52.27
2023-03-25T09:17:25.823Z,53.15
2023-03-25T09:19:54.241Z,52.21
2023-03-25T09:22:21.617Z,53.23
2023-03-25T09:24:48.408Z,53.69
2023-03-25T09:27:15.188Z,53.01
2023-03-25T09:29:42.249Z,52.89
2023-03-25T09:32:09.561Z,52.69
2023-03-25T09:34:38.361Z,51.39
2023-03-25T09:37:05.253Z,51.42
2023-03-25T09:39:32.097Z,49.17
2023-03-25T09:42:04.905Z,47.88
2023-03-25T09:44:39.638Z,47.14
2023-03-25T09:47:09.653Z,47.27
2023-03-25T09:49:46.909Z,46.22
2023-03-25T09:52:17.772Z,46.47
2023-03-25T09:54:50.829Z,46.87
2023-03-25T09:57:23.518Z,45.12
2023-03-25T09:59:51.951Z,45.13
2023-03-25T10:02:21.865Z,45.72
2023-03-25T10:05:08.898Z,46.89
2023-03-25T10:07:54.614Z,45.08
2023-03-25T10:10:34.743Z,47.12
2023-03-25T10:13:10.707Z,44.95
2023-03-25T10:15:44.364Z,43.63
2023-03-25T10:18:36.467Z,42.86
2023-03-25T10:21:12.149Z,42.34
2023-03-25T10:23:46.217Z,44.66
2023-03-25T10:26:17.529Z,42.36
2023-03-25T10:28:53.695Z,42.95
2023-03-25T10:31:23.010Z,42.93
2023-03-25T10:33:54.429Z,43.56
2023-03-25T10:36:28.568Z,43.96
2023-03-25T10:38:55.864Z,41.98
2023-03-25T10:41:32.326Z,42.98
2023-03-25T10:43:59.149Z,42.88
2023-03-25T10:46:38.848Z,42.11
2023-03-25T10:49:05.707Z,41.87
2023-03-25T10:51:34.062Z,42.36
2023-03-25T10:54:01.038Z,40.87
2023-03-25T10:56:33.534Z,41.96
2023-03-25T10:59:03.742Z,42.59
2023-03-25T11:01:44.071Z,43.52
2023-03-25T11:04:14.474Z,41.38
2023-03-25T11:06:43.151Z,41.32
2023-03-25T11:09:30.582Z,40.44
2023-03-25T11:12:01.502Z,40.06
2023-03-25T11:14:30.128Z,42.29
2023-03-25T11:17:04.155Z,43.04
2023-03-25T11:19:31.994Z,43.76
2023-03-25T11:22:09.375Z,42.54
2023-03-25T11:24:41.508Z,43.32
2023-03-25T11:27:09.308Z,43.40
2023-03-25T11:29:37.065Z,43.11
2023-03-25T11:32:11.531Z,43.32
2023-03-25T11:34:47.619Z,46.79
2023-03-25T11:37:22.600Z,51.48
2023-03-25T11:39:52.242Z,52.82
2023-03-25T11:42:22.546Z,54.59
2023-03-25T11:44:53.898Z,54.80
2023-03-25T11:47:26.158Z,52.13
2023-03-25T11:49:53.843Z,50.38
2023-03-25T11:52:26.355Z,51.08
2023-03-25T11:54:54.345Z,47.85
2023-03-25T11:57:25.932Z,47.70
2023-03-25T12:00:07.069Z,47.15
2023-03-25T12:02:40.411Z,48.43
2023-03-25T12:05:13.302Z,44.78
2023-03-25T12:07:51.261Z,45.33
2023-03-25T12:10:28.371Z,41.28
2023-03-25T12:12:58.334Z,40.52
2023-03-25T12:15:41.586Z,41.92
2023-03-25T12:18:11.666Z,41.71
2023-03-25T12:20:46.889Z,40.04
2023-03-25T12:23:25.822Z,40.72
2023-03-25T12:26:06.955Z,43.09
2023-03-25T12:29:00.757Z,42.44
2023-03-25T12:31:43.758Z,41.57
2023-03-25T12:34:19.744Z,41.57
2023-03-25T12:36:55.523Z,39.92
2023-03-25T12:39:42.181Z,39.05
2023-03-25T12:42:37.614Z,35.46
2023-03-25T12:45:35.662Z,38.42
2023-03-25T12:48:11.556Z,39.90
2023-03-25T12:51:00.288Z,40.43
2023-03-25T12:53:27.013Z,41.88
2023-03-25T12:55:53.793Z,43.15
2023-03-25T12:58:42.426Z,44.58
2023-03-25T13:01:35.385Z,46.75
2023-03-25T13:04:14.270Z,47.34
2023-03-25T13:06:48.760Z,52.67
2023-03-25T13:09:22.136Z,58.25
2023-03-25T13:11:58.635Z,60.72
2023-03-25T13:14:36.348Z,61.23
2023-03-25T13:17:07.665Z,59.97
2023-03-25T13:19:39.517Z,60.88
2023-03-25T13:22:16.870Z,62.39
2023-03-25T13:24:56.283Z,65.00
2023-03-25T13:27:23.681Z,67.58
2023-03-25T13:29:53.235Z,66.57
2023-03-25T13:32:48.393Z,69.24
2023-03-25T13:35:25.973Z,70.21
2023-03-25T13:37:56.581Z,69.79
2023-03-25T13:40:29.623Z,70.52
2023-03-25T13:43:00.126Z,70.88
2023-03-25T13:45:33.914Z,73.50
2023-03-25T13:48:12.652Z,69.55
2023-03-25T13:50:39.786Z,66.94
2023-03-25T13:53:28.311Z,65.51
2023-03-25T13:56:07.309Z,64.27
2023-03-25T13:59:10.000Z,63.66
2023-03-25T14:02:11.146Z,64.13
2023-03-25T14:05:06.522Z,65.40
2023-03-25T14:07:33.426Z,64.82
2023-03-25T14:10:12.912Z,62.72
2023-03-25T14:12:46.001Z,64.35
2023-03-25T14:15:16.346Z,63.17
2023-03-25T14:17:45.678Z,62.88
2023-03-25T14:20:18.058Z,62.88
2023-03-25T14:22:45.136Z,64.21
2023-03-25T14:25:20.411Z,60.25
2023-03-25T14:27:51.518Z,61.26
2023-03-25T14:30:27.637Z,59.72
2023-03-25T14:32:57.803Z,61.58
2023-03-25T14:35:34.166Z,60.48
2023-03-25T14:38:22.265Z,59.33
2023-03-25T14:41:02.938Z,60.46
2023-03-25T14:43:37.682Z,57.86
2023-03-25T14:46:14.824Z,58.70
2023-03-25T14:48:48.025Z,58.95
2023-03-25T14:51:22.869Z,59.04
2023-03-25T14:53:55.196Z,58.76
2023-03-25T14:56:32.030Z,58.56
2023-03-25T14:59:06.645Z,58.56
2023-03-25T15:01:35.683Z,57.65
2023-03-25T15:04:13.266Z,57.38
2023-03-25T15:06:40.736Z,56.91
2023-03-25T15:09:13.539Z,57.36
2023-03-25T15:11:43.299Z,57.57
2023-03-25T15:14:19.771Z,57.41
2023-03-25T15:16:47.733Z,57.18
2023-03-25T15:19:16.511Z,56.83
2023-03-25T15:21:58.649Z,58.09
2023-03-25T15:24:38.773Z,57.75
2023-03-25T15:27:17.082Z,57.50
2023-03-25T15:30:02.699Z,57.37
2023-03-25T15:32:53.140Z,57.22
2023-03-25T15:35:38.807Z,56.27
2023-03-25T15:38:30.785Z,58.24
2023-03-25T15:41:13.120Z,57.70
2023-03-25T15:44:00.592Z,57.76
2023-03-25T15:46:56.238Z,57.12
2023-03-25T15:49:33.526Z,58.09
2023-03-25T15:52:09.371Z,58.43
2023-03-25T15:54:48.657Z,58.21
2023-03-25T15:57:17.299Z,58.42
2023-03-25T15:59:52.268Z,59.71
2023-03-25T16:02:28.839Z,60.98
2023-03-25T16:04:56.008Z,59.70
2023-03-25T16:07:25.040Z,61.15
2023-03-25T16:09:51.853Z,66.08
2023-03-25T16:12:24.358Z,67.81
2023-03-25T16:14:52.551Z,71.85
2023-03-25T16:17:21.487Z,75.19
2023-03-25T16:19:57.438Z,72.39
2023-03-25T16:22:30.025Z,72.33
2023-03-25T16:24:58.480Z,74.08
2023-03-25T16:27:30.898Z,73.64
2023-03-25T16:29:58.055Z,73.98
2023-03-25T16:32:33.446Z,74.85
2023-03-25T16:35:01.117Z,74.56
2023-03-25T16:37:28.435Z,75.06
2023-03-25T16:39:56.984Z,74.31
2023-03-25T16:42:31.430Z,73.50
2023-03-25T16:44:58.207Z,74.78
2023-03-25T16:47:25.504Z,75.30
2023-03-25T16:49:53.811Z,75.74
2023-03-25T16:52:26.306Z,75.68
2023-03-25T16:54:53.033Z,75.90
2023-03-25T16:57:29.748Z,75.85
2023-03-25T16:59:57.048Z,76.38
2023-03-25T17:02:23.942Z,77.47
2023-03-25T17:04:51.271Z,77.67
2023-03-25T17:07:21.118Z,77.27
2023-03-25T17:09:51.870Z,77.47
2023-03-25T17:12:21.127Z,75.88
2023-03-25T17:14:50.323Z,76.92
2023-03-25T17:17:23.199Z,77.91
2023-03-25T17:19:52.498Z,75.83
2023-03-25T17:23:10.413Z,74.09
2023-03-25T17:26:02.371Z,74.29
2023-03-25T17:28:38.322Z,76.17
2023-03-25T17:31:18.444Z,76.99
2023-03-25T17:34:06.806Z,78.10
2023-03-25T17:36:36.608Z,78.23
2023-03-25T17:39:05.644Z,77.42
2023-03-25T17:41:38.651Z,76.93
2023-03-25T17:44:06.123Z,77.43
2023-03-25T17:46:33.845Z,77.51
2023-03-25T17:49:01.616Z,77.37
2023-03-25T17:51:30.756Z,77.76
2023-03-25T17:53:57.630Z,76.75
2023-03-25T17:56:26.857Z,77.12
2023-03-25T17:59:00.544Z,77.53
2023-03-25T18:01:28.305Z,77.18
2023-03-25T18:03:55.335Z,77.05
2023-03-25T18:06:22.205Z,75.63
2023-03-25T18:08:49.146Z,76.40
2023-03-25T18:11:16.235Z,76.39
2023-03-25T18:13:48.981Z,76.83
2023-03-25T18:16:17.794Z,75.24
2023-03-25T18:18:44.782Z,73.65
2023-03-25T18:21:12.704Z,74.37
2023-03-25T18:23:40.338Z,72.67
2023-03-25T18:26:12.756Z,74.87
2023-03-25T18:28:43.132Z,73.12
2023-03-25T18:31:17.508Z,73.75
2023-03-25T18:33:46.518Z,73.14
2023-03-25T18:36:13.761Z,74.32
2023-03-25T18:38:41.111Z,73.78
2023-03-25T18:41:08.516Z,74.95
2023-03-25T18:43:35.623Z,73.83
2023-03-25T18:46:02.519Z,74.07
2023-03-25T18:48:29.386Z,74.89
2023-03-25T18:51:00.032Z,72.17
2023-03-25T18:53:28.718Z,73.97
2023-03-25T18:56:00.165Z,74.05
2023-03-25T18:58:31.957Z,72.69
2023-03-25T19:01:00.576Z,72.68
2023-03-25T19:03:31.639Z,72.55
2023-03-25T19:06:00.531Z,72.56
2023-03-25T19:08:28.968Z,71.83
2023-03-25T19:11:04.818Z,72.43
2023-03-25T19:13:31.839Z,73.89
2023-03-25T19:15:59.060Z,74.78
2023-03-25T19:18:26.814Z,77.01
2023-03-25T19:20:54.596Z,78.28
2023-03-25T19:23:23.306Z,77.52
2023-03-25T19:25:52.639Z,76.64
2023-03-25T19:28:21.694Z,74.65
2023-03-25T19:30:50.886Z,76.13
2023-03-25T19:33:19.545Z,76.57
2023-03-25T19:35:55.753Z,75.04
2023-03-25T19:38:23.119Z,74.65
2023-03-25T19:40:52.022Z,76.68
2023-03-25T19:43:19.039Z,74.99
2023-03-25T19:45:45.862Z,74.61
2023-03-25T19:48:12.638Z,74.66
2023-03-25T19:50:41.097Z,75.15
2023-03-25T19:53:08.267Z,73.15
2023-03-25T19:55:35.494Z,73.63
2023-03-25T19:58:03.037Z,73.49
2023-03-25T20:00:30.744Z,72.82
2023-03-25T20:03:00.878Z,72.65
2023-03-25T20:05:31.818Z,73.65
2023-03-25T20:07:58.902Z,74.57
2023-03-25T20:10:30.719Z,74.10
2023-03-25T20:12:58.052Z,76.23
2023-03-25T20:15:25.970Z,75.24
2023-03-25T20:17:54.547Z,75.43
2023-03-25T20:20:22.250Z,75.06
2023-03-25T20:22:49.178Z,75.63
2023-03-25T20:25:16.527Z,76.02
2023-03-25T20:27:44.316Z,75.19
2023-03-25T20:30:14.706Z,76.61
2023-03-25T20:32:43.647Z,76.60
2023-03-25T20:35:13.548Z,76.90
2023-03-25T20:37:41.917Z,76.99
2023-03-25T20:40:11.949Z,79.22
2023-03-25T20:42:40.561Z,78.23
2023-03-25T20:45:08.735Z,77.51
2023-03-25T20:47:35.626Z,77.51
2023-03-25T20:50:03.022Z,78.61
2023-03-25T20:52:30.471Z,78.34
2023-03-25T20:54:57.321Z,79.08
2023-03-25T20:57:24.226Z,78.95
2023-03-25T20:59:53.094Z,78.37
2023-03-25T21:02:21.134Z,79.18
2023-03-25T21:04:48.120Z,79.46
2023-03-25T21:07:18.710Z,79.31
2023-03-25T21:09:47.507Z,78.93
2023-03-25T21:12:14.408Z,80.62
2023-03-25T21:14:41.576Z,81.13
2023-03-25T21:17:08.386Z,82.65
2023-03-25T21:19:35.470Z,82.95
2023-03-25T21:22:02.362Z,82.40
2023-03-25T21:24:29.334Z,82.45
2023-03-25T21:26:56.161Z,82.77
2023-03-25T21:29:23.018Z,82.92
2023-03-25T21:31:49.931Z,81.85
2023-03-25T21:34:16.984Z,82.65
2023-03-25T21:36:43.915Z,82.23
2023-03-25T21:39:11.159Z,82.59
2023-03-25T21:41:38.527Z,81.63
2023-03-25T21:44:06.239Z,82.04
2023-03-25T21:46:33.717Z,81.79
2023-03-25T21:49:01.511Z,82.51
2023-03-25T21:51:31.011Z,81.48
2023-03-25T21:53:58.923Z,81.78
2023-03-25T21:56:27.545Z,80.95
2023-03-25T21:58:54.375Z,81.12
2023-03-25T22:01:28.706Z,81.55
2023-03-25T22:03:57.606Z,81.52
2023-03-25T22:06:27.342Z,82.29
2023-03-25T22:08:54.583Z,81.95
2023-03-25T22:11:24.382Z,82.29
2023-03-25T22:13:51.899Z,81.33
2023-03-25T22:16:20.840Z,81.38
2023-03-25T22:18:48.226Z,81.63
2023-03-25T22:21:19.007Z,81.22
2023-03-25T22:23:47.292Z,79.86
2023-03-25T22:26:16.415Z,81.15
2023-03-25T22:28:43.660Z,80.72
2023-03-25T22:31:16.520Z,80.41
2023-03-25T22:33:43.500Z,80.53
2023-03-25T22:36:13.474Z,81.09
2023-03-25T22:38:45.645Z,81.10
2023-03-25T22:41:14.290Z,81.23
2023-03-25T22:43:41.354Z,81.01
2023-03-25T22:46:09.092Z,80.89
2023-03-25T22:48:38.924Z,80.74
2023-03-25T22:51:07.586Z,81.33
2023-03-25T22:53:34.366Z,81.24
2023-03-25T22:56:01.319Z,80.43
2023-03-25T22:58:29.666Z,80.52
2023-03-25T23:00:57.755Z,80.26
2023-03-25T23:03:26.265Z,79.94
2023-03-25T23:06:01.923Z,80.35
2023-03-25T23:08:31.777Z,80.35
2023-03-25T23:11:08.020Z,80.09
2023-03-25T23:13:35.798Z,79.26
2023-03-25T23:16:09.192Z,79.41
2023-03-25T23:18:37.132Z,79.87
2023-03-25T23:21:04.318Z,80.35
2023-03-25T23:23:31.735Z,81.26
2023-03-25T23:26:03.730Z,79.85
2023-03-25T23:28:34.532Z,79.94
2023-03-25T23:31:02.275Z,79.65
2023-03-25T23:33:30.243Z,78.69
2023-03-25T23:36:05.653Z,79.88
2023-03-25T23:38:32.870Z,80.41
2023-03-25T23:41:10.183Z,79.67
2023-03-25T23:43:37.380Z,79.65
2023-03-25T23:46:05.773Z,78.49
2023-03-25T23:48:33.643Z,80.09
2023-03-25T23:51:00.457Z,81.44
2023-03-25T23:53:27.776Z,81.44
2023-03-25T23:55:55.685Z,80.02
2023-03-25T23:58:25.287Z,80.38
